Aviation Digital Data Service (ADDS)

Output produced by METARs form (2152 UTC 08 August 2020)
found at http://www.aviationweather.gov/metar/data/
 
Forecast for: RKPS (SACHON (KOR-AFB), KR)
Text: TAF RKPS 081700Z 0818/0924 24010KT 4800 BR BKN010 BKN030 TN26/0821Z TX30/0906Z
Forecast period: 1800 UTC 08 August 2020 to 0000 UTC 10 August 2020
Forecast type: FROM: standard forecast or significant change
Winds: from the WSW (240 degrees) at 12 MPH (10 knots; 5.1 m/s)
Visibility: 2.98 miles (4.80 km)
Ceiling: 1000 feet AGL
Clouds: broken clouds at 1000 feet AGL
broken clouds at 3000 feet AGL
Weather: BR  (mist)